createdAt,value
2022-12-06T00:12:40.317Z,5.60
2022-12-06T00:27:42.172Z,5.90
2022-12-06T00:42:44.011Z,6.10
2022-12-06T00:57:45.923Z,5.90
2022-12-06T01:12:47.838Z,5.90
2022-12-06T01:27:49.713Z,5.30
2022-12-06T01:42:51.556Z,5.60
2022-12-06T01:57:57.248Z,5.40
2022-12-06T02:12:59.426Z,5.80
2022-12-06T02:28:25.718Z,5.90
2022-12-06T02:43:43.256Z,5.60
2022-12-06T02:58:45.192Z,5.30
2022-12-06T03:13:59.887Z,5.50
2022-12-06T03:29:05.588Z,5.50
2022-12-06T03:44:07.495Z,5.60
2022-12-06T03:59:10.858Z,5.70
2022-12-06T04:14:12.874Z,5.70
2022-12-06T04:29:33.110Z,5.80
2022-12-06T04:44:35.129Z,5.90
2022-12-06T04:59:39.108Z,5.70
2022-12-06T05:14:40.980Z,5.80
2022-12-06T05:29:42.823Z,5.80
2022-12-06T05:44:44.659Z,5.70
2022-12-06T05:59:46.521Z,5.40
2022-12-06T06:14:48.418Z,5.40
2022-12-06T06:29:50.282Z,5.50
2022-12-06T06:44:54.644Z,5.10
2022-12-06T06:59:56.532Z,5.00
2022-12-06T07:14:58.379Z,4.70
2022-12-06T07:30:00.403Z,4.70
2022-12-06T07:45:04.708Z,4.40
2022-12-06T08:00:08.890Z,4.10
2022-12-06T08:15:13.282Z,4.10
2022-12-06T08:30:15.498Z,4.20
2022-12-06T08:45:17.454Z,4.10
2022-12-06T09:00:19.740Z,4.30
2022-12-06T09:15:21.645Z,4.10
2022-12-06T09:30:24.155Z,4.30
2022-12-06T09:46:17.299Z,4.30
2022-12-06T10:01:43.181Z,4.30
2022-12-06T10:16:51.649Z,4.30
2022-12-06T10:31:57.315Z,4.30
2022-12-06T10:47:16.622Z,4.20
2022-12-06T11:02:48.870Z,4.10
2022-12-06T11:18:02.217Z,4.10
2022-12-06T11:33:06.282Z,4.20
2022-12-06T11:48:23.093Z,4.30
2022-12-06T12:03:33.951Z,4.50
2022-12-06T12:18:38.031Z,4.40
2022-12-06T12:33:39.935Z,4.40
2022-12-06T12:48:45.145Z,4.40
2022-12-06T13:03:51.774Z,4.40
2022-12-06T13:18:57.952Z,4.20
2022-12-06T13:34:04.527Z,4.40
2022-12-06T13:49:25.868Z,4.50
2022-12-06T14:19:28.404Z,4.30
2022-12-06T14:34:32.883Z,4.20
2022-12-06T14:49:54.340Z,4.20
2022-12-06T15:04:56.485Z,4.00
2022-12-06T15:19:58.510Z,4.10
2022-12-06T15:35:00.549Z,4.10
2022-12-06T15:50:03.789Z,4.10
2022-12-06T16:05:06.224Z,4.20
2022-12-06T16:20:28.399Z,4.40
2022-12-06T16:35:31.433Z,4.50
2022-12-06T16:50:38.797Z,4.60
2022-12-06T17:05:40.834Z,4.70
2022-12-06T17:20:43.073Z,4.70
2022-12-06T17:35:44.956Z,4.70
2022-12-06T17:50:46.851Z,4.50
2022-12-06T18:05:48.865Z,4.40
2022-12-06T18:20:50.866Z,4.50
2022-12-06T18:35:53.691Z,4.40
2022-12-06T18:50:56.069Z,4.30
2022-12-06T19:06:05.195Z,4.50
2022-12-06T19:21:07.219Z,4.60
2022-12-06T19:36:15.120Z,4.30
2022-12-06T19:51:17.222Z,4.20
2022-12-06T20:06:24.021Z,4.30
2022-12-06T20:21:26.678Z,4.20
2022-12-06T20:36:31.557Z,3.90
2022-12-06T20:51:34.668Z,4.00
2022-12-06T21:06:36.779Z,4.10
2022-12-06T21:21:41.669Z,4.20
2022-12-06T21:36:44.120Z,4.00
2022-12-06T21:51:46.237Z,3.90
2022-12-06T22:06:48.168Z,3.70
2022-12-06T22:21:50.118Z,4.00
2022-12-06T22:36:52.043Z,3.60
2022-12-06T22:51:53.917Z,3.80
2022-12-06T23:06:55.805Z,3.70
2022-12-06T23:21:57.699Z,3.70
2022-12-06T23:36:59.637Z,3.60
2022-12-06T23:52:01.612Z,3.60
